»·PEaware :: N701DB KRNO-KLAS

N701DB :: KRNO-KLAS

FLIGHT INFORMATION

Flight Status: Arrived
Operator: Privately registered:
United States
More flights under this callsign
Pilot: Ryan B. (8502)
Aircraft: GULFSTREAM G-1159C GULFSTREAM 4
(GLF4)
More flights by this aircraft type
Origin: KRNO Reno/Tahoe Intl
United States
Destination: KLAS McCarran Intl
United States
More flights between these airports :: More routes between these airports
Route: +ZEFFR6 PESKE LIDAT J92 BTY SUNST4
File this flight plan on PilotEdge
Remarks:
Altitude:
(Current/Filed)
39,000ft
Speed:
(Current/Filed)
485kts
Departed: 01-Nov-17 09:06 AM
Arrived: 01-Nov-17 09:58 AM
Distance/Time
Traveled:
299nm/0:51
Distance/Time
To Go:
Arrived

Flight Plot

Page will automatically refresh every two minutes.

Flight plan parsing failed; only flown route is shown


Map Options




Map Legend


Flown Route
Filed Route
Departure Airport
Arrival Airport
Navaid (VOR, NDB)
Fix

Horizontal Profiles

Position Reports

Time Latitude Longitude Heading Altitude Ground
Speed
01-Nov-17 08:59 39.499089 -119.763694 270 4405ft 0kts
01-Nov-17 09:00 39.499089 -119.763694 270 4405ft 0kts
01-Nov-17 09:01 39.499089 -119.763694 270 4405ft 0kts
01-Nov-17 09:02 39.499089 -119.763694 270 4405ft 0kts
01-Nov-17 09:03 39.499089 -119.763694 270 4405ft 0kts
01-Nov-17 09:04 39.499089 -119.763694 270 4405ft 0kts
01-Nov-17 09:05 39.499089 -119.763694 270 4405ft 0kts
01-Nov-17 09:06 39.498051 -119.765032 218 4405ft 2kts
01-Nov-17 09:07 39.499761 -119.765179 358 4407ft 14kts
01-Nov-17 09:08 39.503353 -119.765779 0 4408ft 24kts
01-Nov-17 09:09 39.510087 -119.765749 7 4414ft 11kts
01-Nov-17 09:10 39.512469 -119.765125 358 4416ft 12kts
01-Nov-17 09:11 39.510062 -119.766739 179 4414ft 105kts
01-Nov-17 09:12 39.466337 -119.765660 179 6980ft 242kts
01-Nov-17 09:13 39.378055 -119.769366 182 11692ft 333kts
01-Nov-17 09:14 39.289199 -119.721107 135 16397ft 383kts
01-Nov-17 09:15 39.214620 -119.617810 131 20752ft 412kts
01-Nov-17 09:16 39.149181 -119.525694 134 23868ft 434kts
01-Nov-17 09:17 39.060927 -119.415235 135 27121ft 458kts
01-Nov-17 09:18 38.991442 -119.329142 135 29419ft 471kts
01-Nov-17 09:19 38.912400 -119.231460 135 31891ft 480kts
01-Nov-17 09:20 38.816522 -119.113392 134 33896ft 492kts
01-Nov-17 09:21 38.720564 -118.988217 131 34966ft 500kts
01-Nov-17 09:22 38.624893 -118.858199 131 35891ft 507kts
01-Nov-17 09:23 38.528411 -118.727624 131 36375ft 511kts
01-Nov-17 09:24 38.429952 -118.594908 131 37323ft 520kts
01-Nov-17 09:25 38.330681 -118.461631 131 37172ft 520kts
01-Nov-17 09:26 38.234656 -118.333274 132 37065ft 518kts
01-Nov-17 09:27 38.135768 -118.201654 132 37066ft 518kts
01-Nov-17 09:28 38.036648 -118.070261 132 37070ft 518kts
01-Nov-17 09:29 37.937549 -117.939467 132 37085ft 518kts
01-Nov-17 09:30 37.839798 -117.810948 132 37082ft 518kts
01-Nov-17 09:31 37.740147 -117.680499 132 37092ft 518kts
01-Nov-17 09:32 37.640352 -117.550390 132 37100ft 518kts
01-Nov-17 09:33 37.540930 -117.421301 132 37099ft 518kts
01-Nov-17 09:34 37.440923 -117.293006 139 37099ft 518kts
01-Nov-17 09:35 37.324153 -117.188083 144 37095ft 519kts
01-Nov-17 09:36 37.207406 -117.089188 144 34771ft 503kts
01-Nov-17 09:37 37.093263 -116.992934 145 33248ft 491kts
01-Nov-17 09:38 36.982172 -116.899666 144 32197ft 472kts
01-Nov-17 09:39 36.884761 -116.817933 144 28212ft 401kts
01-Nov-17 09:40 36.795120 -116.736136 133 24474ft 407kts
01-Nov-17 09:41 36.722138 -116.635472 131 21781ft 387kts
01-Nov-17 09:42 36.651272 -116.534812 131 21047ft 392kts
01-Nov-17 09:43 36.579393 -116.432844 131 21045ft 396kts
01-Nov-17 09:44 36.507442 -116.331058 132 21046ft 399kts
01-Nov-17 09:45 36.434869 -116.228691 132 21003ft 379kts
01-Nov-17 09:46 36.366107 -116.131955 132 19000ft 373kts
01-Nov-17 09:47 36.298628 -116.037424 132 17102ft 365kts
01-Nov-17 09:48 36.231957 -115.944230 132 16031ft 359kts
01-Nov-17 09:49 36.184529 -115.847760 114 15817ft 305kts
01-Nov-17 09:50 36.152197 -115.749650 113 14326ft 307kts
01-Nov-17 09:51 36.120913 -115.652774 113 13096ft 303kts
01-Nov-17 09:52 36.091556 -115.561876 113 12564ft 277kts
01-Nov-17 09:53 36.063006 -115.473845 113 11475ft 276kts
01-Nov-17 09:54 36.034488 -115.385619 106 11004ft 276kts
01-Nov-17 09:55 36.025362 -115.294096 96 9785ft 272kts
01-Nov-17 09:56 36.018540 -115.202795 96 8530ft 262kts
01-Nov-17 09:57 36.012849 -115.119709 96 8028ft 233kts
01-Nov-17 09:58 36.036595 -115.064880 21 7558ft 200kts
01-Nov-17 09:59 36.085565 -115.066897 333 6553ft 181kts
01-Nov-17 10:00 36.126217 -115.098915 309 5269ft 169kts
01-Nov-17 10:01 36.122266 -115.143939 200 3565ft 157kts
01-Nov-17 10:02 36.086069 -115.164158 206 2144ft 98kts
01-Nov-17 10:03 36.082583 -115.168419 244 2165ft 10kts

Navigation Log

Ident Type
Flight plan parsing failed, navigation log unavailable